sensor_id;sensor_type;location;lat;lon;timestamp;P1;durP1;ratioP1;P2;durP2;ratioP2
44276;SDS011;29973;43.742;1.236;2023-08-06T00:00:40;15.57;;;3.78;;
44276;SDS011;29973;43.742;1.236;2023-08-06T00:03:05;10.20;;;3.83;;
44276;SDS011;29973;43.742;1.236;2023-08-06T00:05:31;14.48;;;4.47;;
44276;SDS011;29973;43.742;1.236;2023-08-06T00:07:57;9.48;;;3.55;;
44276;SDS011;29973;43.742;1.236;2023-08-06T00:10:23;11.27;;;3.80;;
44276;SDS011;29973;43.742;1.236;2023-08-06T00:12:48;10.05;;;3.83;;
44276;SDS011;29973;43.742;1.236;2023-08-06T00:15:14;10.88;;;3.88;;
44276;SDS011;29973;43.742;1.236;2023-08-06T00:17:40;9.77;;;4.00;;
44276;SDS011;29973;43.742;1.236;2023-08-06T00:20:06;9.98;;;3.65;;
44276;SDS011;29973;43.742;1.236;2023-08-06T00:22:32;13.48;;;4.13;;
44276;SDS011;29973;43.742;1.236;2023-08-06T00:25:00;7.78;;;3.70;;
44276;SDS011;29973;43.742;1.236;2023-08-06T00:27:31;11.63;;;3.38;;
44276;SDS011;29973;43.742;1.236;2023-08-06T00:30:04;10.73;;;3.95;;
44276;SDS011;29973;43.742;1.236;2023-08-06T00:32:31;11.30;;;4.22;;
44276;SDS011;29973;43.742;1.236;2023-08-06T00:35:15;10.55;;;3.50;;
44276;SDS011;29973;43.742;1.236;2023-08-06T00:37:45;18.63;;;3.23;;
44276;SDS011;29973;43.742;1.236;2023-08-06T00:40:20;11.15;;;3.45;;
44276;SDS011;29973;43.742;1.236;2023-08-06T00:42:47;15.68;;;3.67;;
44276;SDS011;29973;43.742;1.236;2023-08-06T00:45:13;14.75;;;3.55;;
44276;SDS011;29973;43.742;1.236;2023-08-06T00:47:40;15.63;;;3.42;;
44276;SDS011;29973;43.742;1.236;2023-08-06T00:50:11;14.48;;;3.83;;
44276;SDS011;29973;43.742;1.236;2023-08-06T00:52:36;12.82;;;2.95;;
44276;SDS011;29973;43.742;1.236;2023-08-06T00:55:03;16.73;;;3.95;;
44276;SDS011;29973;43.742;1.236;2023-08-06T00:57:29;20.73;;;3.83;;
44276;SDS011;29973;43.742;1.236;2023-08-06T00:59:54;19.33;;;3.85;;
44276;SDS011;29973;43.742;1.236;2023-08-06T01:02:20;16.65;;;3.28;;
44276;SDS011;29973;43.742;1.236;2023-08-06T01:04:46;12.27;;;3.33;;
44276;SDS011;29973;43.742;1.236;2023-08-06T01:12:48;22.48;;;4.10;;
44276;SDS011;29973;43.742;1.236;2023-08-06T01:15:47;15.15;;;3.30;;
44276;SDS011;29973;43.742;1.236;2023-08-06T01:18:16;22.02;;;3.50;;
44276;SDS011;29973;43.742;1.236;2023-08-06T01:20:42;13.45;;;2.97;;
44276;SDS011;29973;43.742;1.236;2023-08-06T01:23:07;17.55;;;3.03;;
44276;SDS011;29973;43.742;1.236;2023-08-06T01:25:34;17.77;;;2.67;;
44276;SDS011;29973;43.742;1.236;2023-08-06T01:28:15;18.63;;;3.85;;
44276;SDS011;29973;43.742;1.236;2023-08-06T01:30:48;22.20;;;3.33;;
44276;SDS011;29973;43.742;1.236;2023-08-06T01:33:16;17.65;;;3.60;;
44276;SDS011;29973;43.742;1.236;2023-08-06T01:35:46;23.88;;;3.88;;
44276;SDS011;29973;43.742;1.236;2023-08-06T01:38:14;20.52;;;3.13;;
44276;SDS011;29973;43.742;1.236;2023-08-06T01:40:40;20.75;;;3.47;;
44276;SDS011;29973;43.742;1.236;2023-08-06T01:43:06;20.88;;;3.67;;
44276;SDS011;29973;43.742;1.236;2023-08-06T01:45:32;21.70;;;3.20;;
44276;SDS011;29973;43.742;1.236;2023-08-06T01:47:58;15.35;;;3.33;;
44276;SDS011;29973;43.742;1.236;2023-08-06T01:50:23;15.68;;;3.20;;
44276;SDS011;29973;43.742;1.236;2023-08-06T01:52:49;19.63;;;3.58;;
44276;SDS011;29973;43.742;1.236;2023-08-06T01:55:14;19.38;;;3.33;;
44276;SDS011;29973;43.742;1.236;2023-08-06T01:57:40;15.73;;;3.00;;
44276;SDS011;29973;43.742;1.236;2023-08-06T02:00:06;18.73;;;3.60;;
44276;SDS011;29973;43.742;1.236;2023-08-06T02:02:32;18.38;;;3.58;;
44276;SDS011;29973;43.742;1.236;2023-08-06T02:04:58;13.35;;;3.55;;
44276;SDS011;29973;43.742;1.236;2023-08-06T02:07:24;13.75;;;3.42;;
44276;SDS011;29973;43.742;1.236;2023-08-06T02:09:50;19.00;;;3.58;;
44276;SDS011;29973;43.742;1.236;2023-08-06T02:12:15;15.23;;;3.47;;
44276;SDS011;29973;43.742;1.236;2023-08-06T02:14:41;15.48;;;3.75;;
44276;SDS011;29973;43.742;1.236;2023-08-06T02:17:07;13.15;;;2.83;;
44276;SDS011;29973;43.742;1.236;2023-08-06T02:19:33;25.88;;;3.92;;
44276;SDS011;29973;43.742;1.236;2023-08-06T02:21:58;22.70;;;3.45;;
44276;SDS011;29973;43.742;1.236;2023-08-06T02:24:24;16.67;;;3.40;;
44276;SDS011;29973;43.742;1.236;2023-08-06T02:26:50;18.52;;;2.95;;
44276;SDS011;29973;43.742;1.236;2023-08-06T02:29:17;16.30;;;3.78;;
44276;SDS011;29973;43.742;1.236;2023-08-06T02:31:42;11.68;;;2.72;;
44276;SDS011;29973;43.742;1.236;2023-08-06T02:34:08;14.88;;;2.88;;
44276;SDS011;29973;43.742;1.236;2023-08-06T02:36:34;18.08;;;3.28;;
44276;SDS011;29973;43.742;1.236;2023-08-06T02:39:00;17.05;;;3.47;;
44276;SDS011;29973;43.742;1.236;2023-08-06T02:41:26;18.70;;;3.90;;
44276;SDS011;29973;43.742;1.236;2023-08-06T02:43:52;17.20;;;3.08;;
44276;SDS011;29973;43.742;1.236;2023-08-06T02:46:18;18.25;;;3.22;;
44276;SDS011;29973;43.742;1.236;2023-08-06T02:48:43;19.67;;;3.33;;
44276;SDS011;29973;43.742;1.236;2023-08-06T02:51:09;16.88;;;3.10;;
44276;SDS011;29973;43.742;1.236;2023-08-06T02:53:35;20.52;;;3.83;;
44276;SDS011;29973;43.742;1.236;2023-08-06T02:56:01;17.83;;;3.10;;
44276;SDS011;29973;43.742;1.236;2023-08-06T02:58:26;19.95;;;3.10;;
44276;SDS011;29973;43.742;1.236;2023-08-06T03:01:01;13.32;;;2.63;;
44276;SDS011;29973;43.742;1.236;2023-08-06T03:03:31;17.17;;;3.25;;
44276;SDS011;29973;43.742;1.236;2023-08-06T03:05:57;17.55;;;3.10;;
44276;SDS011;29973;43.742;1.236;2023-08-06T03:08:23;16.13;;;3.20;;
44276;SDS011;29973;43.742;1.236;2023-08-06T03:10:49;18.45;;;3.55;;
44276;SDS011;29973;43.742;1.236;2023-08-06T03:13:18;19.25;;;2.47;;
44276;SDS011;29973;43.742;1.236;2023-08-06T03:15:57;17.38;;;2.50;;
44276;SDS011;29973;43.742;1.236;2023-08-06T03:18:24;16.35;;;3.08;;
44276;SDS011;29973;43.742;1.236;2023-08-06T03:20:51;16.45;;;3.10;;
44276;SDS011;29973;43.742;1.236;2023-08-06T03:23:16;19.17;;;3.40;;
44276;SDS011;29973;43.742;1.236;2023-08-06T03:25:42;18.25;;;3.00;;
44276;SDS011;29973;43.742;1.236;2023-08-06T03:28:08;21.08;;;3.58;;
44276;SDS011;29973;43.742;1.236;2023-08-06T03:30:34;20.38;;;3.90;;
44276;SDS011;29973;43.742;1.236;2023-08-06T03:33:00;18.50;;;2.97;;
44276;SDS011;29973;43.742;1.236;2023-08-06T03:35:26;22.75;;;3.10;;
44276;SDS011;29973;43.742;1.236;2023-08-06T03:37:51;16.67;;;3.13;;
44276;SDS011;29973;43.742;1.236;2023-08-06T03:40:17;16.42;;;2.85;;
44276;SDS011;29973;43.742;1.236;2023-08-06T03:42:43;19.77;;;3.63;;
44276;SDS011;29973;43.742;1.236;2023-08-06T03:45:08;23.13;;;3.28;;
44276;SDS011;29973;43.742;1.236;2023-08-06T03:47:34;17.23;;;3.80;;
44276;SDS011;29973;43.742;1.236;2023-08-06T03:50:00;17.83;;;3.00;;
44276;SDS011;29973;43.742;1.236;2023-08-06T03:52:26;17.10;;;3.58;;
44276;SDS011;29973;43.742;1.236;2023-08-06T03:54:51;22.73;;;3.47;;
44276;SDS011;29973;43.742;1.236;2023-08-06T03:57:17;15.10;;;3.35;;
44276;SDS011;29973;43.742;1.236;2023-08-06T03:59:43;18.95;;;3.30;;
44276;SDS011;29973;43.742;1.236;2023-08-06T04:02:08;17.42;;;3.47;;
44276;SDS011;29973;43.742;1.236;2023-08-06T04:04:34;20.75;;;3.63;;
44276;SDS011;29973;43.742;1.236;2023-08-06T04:07:00;19.42;;;3.45;;
44276;SDS011;29973;43.742;1.236;2023-08-06T04:09:27;18.40;;;3.50;;
44276;SDS011;29973;43.742;1.236;2023-08-06T04:11:53;17.70;;;3.65;;
44276;SDS011;29973;43.742;1.236;2023-08-06T04:14:19;13.63;;;3.13;;
44276;SDS011;29973;43.742;1.236;2023-08-06T04:16:45;15.95;;;3.70;;
44276;SDS011;29973;43.742;1.236;2023-08-06T04:19:11;24.58;;;4.50;;
44276;SDS011;29973;43.742;1.236;2023-08-06T04:21:36;19.63;;;4.57;;
44276;SDS011;29973;43.742;1.236;2023-08-06T04:24:02;20.30;;;3.83;;
44276;SDS011;29973;43.742;1.236;2023-08-06T04:26:28;15.13;;;3.67;;
44276;SDS011;29973;43.742;1.236;2023-08-06T04:28:54;26.67;;;3.35;;
44276;SDS011;29973;43.742;1.236;2023-08-06T04:31:20;18.85;;;3.50;;
44276;SDS011;29973;43.742;1.236;2023-08-06T04:33:47;18.10;;;3.47;;
44276;SDS011;29973;43.742;1.236;2023-08-06T04:36:12;28.92;;;3.67;;
44276;SDS011;29973;43.742;1.236;2023-08-06T04:38:38;22.88;;;3.53;;
44276;SDS011;29973;43.742;1.236;2023-08-06T04:41:06;12.68;;;2.78;;
44276;SDS011;29973;43.742;1.236;2023-08-06T04:43:32;18.70;;;3.40;;
44276;SDS011;29973;43.742;1.236;2023-08-06T04:45:57;20.25;;;3.22;;
44276;SDS011;29973;43.742;1.236;2023-08-06T04:48:23;20.08;;;3.20;;
44276;SDS011;29973;43.742;1.236;2023-08-06T04:50:49;13.20;;;2.75;;
44276;SDS011;29973;43.742;1.236;2023-08-06T04:53:16;17.73;;;3.70;;
44276;SDS011;29973;43.742;1.236;2023-08-06T04:55:42;19.10;;;3.53;;
44276;SDS011;29973;43.742;1.236;2023-08-06T04:58:11;19.77;;;3.38;;
44276;SDS011;29973;43.742;1.236;2023-08-06T05:00:37;18.42;;;3.67;;
44276;SDS011;29973;43.742;1.236;2023-08-06T05:03:03;15.57;;;3.22;;
44276;SDS011;29973;43.742;1.236;2023-08-06T05:05:28;18.52;;;3.85;;
44276;SDS011;29973;43.742;1.236;2023-08-06T05:07:55;17.80;;;3.08;;
44276;SDS011;29973;43.742;1.236;2023-08-06T05:10:24;20.80;;;3.75;;
44276;SDS011;29973;43.742;1.236;2023-08-06T05:12:50;22.67;;;4.25;;
44276;SDS011;29973;43.742;1.236;2023-08-06T05:15:16;18.60;;;2.97;;
44276;SDS011;29973;43.742;1.236;2023-08-06T05:17:42;17.02;;;3.35;;
44276;SDS011;29973;43.742;1.236;2023-08-06T05:20:08;20.73;;;3.85;;
44276;SDS011;29973;43.742;1.236;2023-08-06T05:22:34;20.73;;;3.15;;
44276;SDS011;29973;43.742;1.236;2023-08-06T05:24:59;16.95;;;3.60;;
44276;SDS011;29973;43.742;1.236;2023-08-06T05:27:25;20.13;;;3.55;;
44276;SDS011;29973;43.742;1.236;2023-08-06T05:29:54;17.80;;;3.42;;
44276;SDS011;29973;43.742;1.236;2023-08-06T05:32:20;11.98;;;2.67;;
44276;SDS011;29973;43.742;1.236;2023-08-06T05:34:46;18.90;;;3.75;;
44276;SDS011;29973;43.742;1.236;2023-08-06T05:37:12;18.98;;;3.40;;
44276;SDS011;29973;43.742;1.236;2023-08-06T05:39:37;20.00;;;2.90;;
44276;SDS011;29973;43.742;1.236;2023-08-06T05:42:03;22.75;;;3.55;;
44276;SDS011;29973;43.742;1.236;2023-08-06T05:44:29;16.45;;;3.20;;
44276;SDS011;29973;43.742;1.236;2023-08-06T05:46:55;18.02;;;3.30;;
44276;SDS011;29973;43.742;1.236;2023-08-06T05:49:20;19.65;;;3.22;;
44276;SDS011;29973;43.742;1.236;2023-08-06T05:51:46;12.00;;;2.72;;
44276;SDS011;29973;43.742;1.236;2023-08-06T05:54:12;18.58;;;3.05;;
44276;SDS011;29973;43.742;1.236;2023-08-06T05:56:38;22.17;;;3.85;;
44276;SDS011;29973;43.742;1.236;2023-08-06T05:59:03;20.58;;;3.60;;
44276;SDS011;29973;43.742;1.236;2023-08-06T06:01:29;18.58;;;3.35;;
44276;SDS011;29973;43.742;1.236;2023-08-06T06:03:55;16.75;;;3.53;;
44276;SDS011;29973;43.742;1.236;2023-08-06T06:06:20;27.85;;;4.00;;
44276;SDS011;29973;43.742;1.236;2023-08-06T06:08:46;17.17;;;3.05;;
44276;SDS011;29973;43.742;1.236;2023-08-06T06:11:12;20.33;;;3.40;;
44276;SDS011;29973;43.742;1.236;2023-08-06T06:13:37;18.80;;;3.83;;
44276;SDS011;29973;43.742;1.236;2023-08-06T06:16:03;20.17;;;3.63;;
44276;SDS011;29973;43.742;1.236;2023-08-06T06:18:30;20.00;;;4.20;;
44276;SDS011;29973;43.742;1.236;2023-08-06T06:20:56;24.60;;;3.80;;
44276;SDS011;29973;43.742;1.236;2023-08-06T06:23:21;16.75;;;3.10;;
44276;SDS011;29973;43.742;1.236;2023-08-06T06:25:48;18.67;;;3.25;;
44276;SDS011;29973;43.742;1.236;2023-08-06T06:28:14;20.65;;;3.30;;
44276;SDS011;29973;43.742;1.236;2023-08-06T06:30:41;16.63;;;3.22;;
44276;SDS011;29973;43.742;1.236;2023-08-06T06:33:07;19.75;;;3.10;;
44276;SDS011;29973;43.742;1.236;2023-08-06T06:35:33;17.23;;;3.67;;
44276;SDS011;29973;43.742;1.236;2023-08-06T06:37:59;18.25;;;3.75;;
44276;SDS011;29973;43.742;1.236;2023-08-06T06:40:25;19.88;;;2.88;;
44276;SDS011;29973;43.742;1.236;2023-08-06T06:42:51;15.48;;;2.90;;
44276;SDS011;29973;43.742;1.236;2023-08-06T06:45:16;16.10;;;2.88;;
44276;SDS011;29973;43.742;1.236;2023-08-06T06:47:42;16.67;;;2.60;;
44276;SDS011;29973;43.742;1.236;2023-08-06T06:50:08;16.88;;;3.63;;
44276;SDS011;29973;43.742;1.236;2023-08-06T06:52:34;16.17;;;2.60;;
44276;SDS011;29973;43.742;1.236;2023-08-06T06:55:00;15.23;;;3.38;;
44276;SDS011;29973;43.742;1.236;2023-08-06T06:57:26;14.05;;;3.03;;
44276;SDS011;29973;43.742;1.236;2023-08-06T06:59:51;13.80;;;3.00;;
44276;SDS011;29973;43.742;1.236;2023-08-06T07:02:17;13.50;;;2.97;;
44276;SDS011;29973;43.742;1.236;2023-08-06T07:04:43;9.02;;;2.08;;
44276;SDS011;29973;43.742;1.236;2023-08-06T07:07:09;12.52;;;2.45;;
44276;SDS011;29973;43.742;1.236;2023-08-06T07:09:35;17.20;;;2.65;;
44276;SDS011;29973;43.742;1.236;2023-08-06T07:12:01;23.23;;;2.60;;
44276;SDS011;29973;43.742;1.236;2023-08-06T07:14:28;11.57;;;1.98;;
44276;SDS011;29973;43.742;1.236;2023-08-06T07:16:55;10.15;;;2.40;;
44276;SDS011;29973;43.742;1.236;2023-08-06T07:19:22;14.52;;;2.97;;
44276;SDS011;29973;43.742;1.236;2023-08-06T07:21:48;18.20;;;2.78;;
44276;SDS011;29973;43.742;1.236;2023-08-06T07:24:13;12.23;;;2.33;;
44276;SDS011;29973;43.742;1.236;2023-08-06T07:26:40;13.88;;;2.90;;
44276;SDS011;29973;43.742;1.236;2023-08-06T07:29:06;15.65;;;2.80;;
44276;SDS011;29973;43.742;1.236;2023-08-06T07:31:32;11.02;;;2.10;;
44276;SDS011;29973;43.742;1.236;2023-08-06T07:33:58;12.40;;;2.72;;
44276;SDS011;29973;43.742;1.236;2023-08-06T07:36:24;11.48;;;2.47;;
44276;SDS011;29973;43.742;1.236;2023-08-06T07:38:50;14.65;;;2.20;;
44276;SDS011;29973;43.742;1.236;2023-08-06T07:41:20;11.48;;;2.35;;
44276;SDS011;29973;43.742;1.236;2023-08-06T07:43:47;12.45;;;2.47;;
44276;SDS011;29973;43.742;1.236;2023-08-06T07:46:13;12.10;;;2.30;;
44276;SDS011;29973;43.742;1.236;2023-08-06T07:48:39;18.00;;;2.97;;
44276;SDS011;29973;43.742;1.236;2023-08-06T07:51:05;14.73;;;1.85;;
44276;SDS011;29973;43.742;1.236;2023-08-06T07:53:30;15.75;;;2.03;;
44276;SDS011;29973;43.742;1.236;2023-08-06T07:56:12;14.50;;;2.67;;
44276;SDS011;29973;43.742;1.236;2023-08-06T07:58:38;12.52;;;2.30;;
44276;SDS011;29973;43.742;1.236;2023-08-06T08:01:03;13.82;;;2.47;;
44276;SDS011;29973;43.742;1.236;2023-08-06T08:03:32;14.52;;;2.40;;
44276;SDS011;29973;43.742;1.236;2023-08-06T08:05:57;11.57;;;2.30;;
44276;SDS011;29973;43.742;1.236;2023-08-06T08:08:24;12.07;;;2.53;;
44276;SDS011;29973;43.742;1.236;2023-08-06T08:10:50;7.18;;;1.75;;
44276;SDS011;29973;43.742;1.236;2023-08-06T08:13:15;8.60;;;2.22;;
44276;SDS011;29973;43.742;1.236;2023-08-06T08:15:41;12.80;;;2.47;;
44276;SDS011;29973;43.742;1.236;2023-08-06T08:18:07;13.60;;;2.55;;
44276;SDS011;29973;43.742;1.236;2023-08-06T08:20:33;7.93;;;1.52;;
44276;SDS011;29973;43.742;1.236;2023-08-06T08:23:00;7.47;;;1.75;;
44276;SDS011;29973;43.742;1.236;2023-08-06T08:25:26;9.38;;;1.95;;
44276;SDS011;29973;43.742;1.236;2023-08-06T08:27:53;15.57;;;2.33;;
44276;SDS011;29973;43.742;1.236;2023-08-06T08:30:19;9.98;;;2.38;;
44276;SDS011;29973;43.742;1.236;2023-08-06T08:32:45;11.07;;;2.00;;
44276;SDS011;29973;43.742;1.236;2023-08-06T08:35:12;13.25;;;2.33;;
44276;SDS011;29973;43.742;1.236;2023-08-06T08:37:41;14.43;;;2.92;;
44276;SDS011;29973;43.742;1.236;2023-08-06T08:40:08;13.50;;;2.38;;
44276;SDS011;29973;43.742;1.236;2023-08-06T08:42:34;14.18;;;2.67;;
44276;SDS011;29973;43.742;1.236;2023-08-06T08:45:01;13.75;;;2.05;;
44276;SDS011;29973;43.742;1.236;2023-08-06T08:47:29;8.13;;;2.05;;
44276;SDS011;29973;43.742;1.236;2023-08-06T08:49:56;18.75;;;2.67;;
44276;SDS011;29973;43.742;1.236;2023-08-06T08:52:23;7.68;;;1.83;;
44276;SDS011;29973;43.742;1.236;2023-08-06T08:54:53;14.10;;;2.60;;
44276;SDS011;29973;43.742;1.236;2023-08-06T08:57:19;11.68;;;1.85;;
44276;SDS011;29973;43.742;1.236;2023-08-06T08:59:46;10.35;;;2.17;;
44276;SDS011;29973;43.742;1.236;2023-08-06T09:02:12;12.73;;;2.70;;
44276;SDS011;29973;43.742;1.236;2023-08-06T09:04:40;13.57;;;2.10;;
44276;SDS011;29973;43.742;1.236;2023-08-06T09:07:08;13.90;;;2.45;;
44276;SDS011;29973;43.742;1.236;2023-08-06T09:09:40;12.45;;;2.05;;
44276;SDS011;29973;43.742;1.236;2023-08-06T09:12:12;9.68;;;2.38;;
44276;SDS011;29973;43.742;1.236;2023-08-06T09:14:52;11.77;;;2.63;;
44276;SDS011;29973;43.742;1.236;2023-08-06T09:17:19;8.43;;;2.28;;
44276;SDS011;29973;43.742;1.236;2023-08-06T09:19:46;11.27;;;2.58;;
44276;SDS011;29973;43.742;1.236;2023-08-06T09:22:13;7.07;;;2.10;;
44276;SDS011;29973;43.742;1.236;2023-08-06T09:24:39;6.53;;;1.88;;
44276;SDS011;29973;43.742;1.236;2023-08-06T09:27:13;9.45;;;1.92;;
44276;SDS011;29973;43.742;1.236;2023-08-06T09:29:40;16.42;;;2.38;;
44276;SDS011;29973;43.742;1.236;2023-08-06T09:32:10;9.63;;;2.20;;
44276;SDS011;29973;43.742;1.236;2023-08-06T09:34:38;11.63;;;2.15;;
44276;SDS011;29973;43.742;1.236;2023-08-06T09:37:05;9.60;;;1.95;;
44276;SDS011;29973;43.742;1.236;2023-08-06T09:39:33;8.15;;;1.60;;
44276;SDS011;29973;43.742;1.236;2023-08-06T09:42:00;9.52;;;1.80;;
44276;SDS011;29973;43.742;1.236;2023-08-06T09:44:27;9.00;;;2.00;;
44276;SDS011;29973;43.742;1.236;2023-08-06T09:46:54;13.38;;;2.10;;
44276;SDS011;29973;43.742;1.236;2023-08-06T09:52:13;8.35;;;2.30;;
44276;SDS011;29973;43.742;1.236;2023-08-06T09:54:40;8.57;;;2.10;;
44276;SDS011;29973;43.742;1.236;2023-08-06T09:57:08;6.80;;;1.90;;
44276;SDS011;29973;43.742;1.236;2023-08-06T09:59:37;10.60;;;2.13;;
44276;SDS011;29973;43.742;1.236;2023-08-06T10:02:06;12.48;;;1.95;;
44276;SDS011;29973;43.742;1.236;2023-08-06T10:04:38;7.65;;;2.35;;
44276;SDS011;29973;43.742;1.236;2023-08-06T10:07:04;9.52;;;1.98;;
44276;SDS011;29973;43.742;1.236;2023-08-06T10:09:30;13.27;;;1.88;;
44276;SDS011;29973;43.742;1.236;2023-08-06T10:11:56;11.23;;;2.25;;
44276;SDS011;29973;43.742;1.236;2023-08-06T10:14:25;10.55;;;1.90;;
44276;SDS011;29973;43.742;1.236;2023-08-06T10:16:52;6.63;;;2.00;;
44276;SDS011;29973;43.742;1.236;2023-08-06T10:19:18;5.15;;;1.63;;
44276;SDS011;29973;43.742;1.236;2023-08-06T10:24:47;7.25;;;2.00;;
44276;SDS011;29973;43.742;1.236;2023-08-06T10:29:45;9.55;;;2.28;;
44276;SDS011;29973;43.742;1.236;2023-08-06T10:32:11;7.25;;;1.95;;
44276;SDS011;29973;43.742;1.236;2023-08-06T10:34:53;7.15;;;1.92;;
44276;SDS011;29973;43.742;1.236;2023-08-06T10:37:20;9.25;;;2.00;;
44276;SDS011;29973;43.742;1.236;2023-08-06T10:39:50;10.98;;;2.17;;
44276;SDS011;29973;43.742;1.236;2023-08-06T10:42:26;7.65;;;1.70;;
44276;SDS011;29973;43.742;1.236;2023-08-06T10:47:41;8.23;;;1.92;;
44276;SDS011;29973;43.742;1.236;2023-08-06T10:50:12;6.93;;;2.28;;
44276;SDS011;29973;43.742;1.236;2023-08-06T10:52:41;7.72;;;2.00;;
44276;SDS011;29973;43.742;1.236;2023-08-06T10:55:08;8.05;;;1.80;;
44276;SDS011;29973;43.742;1.236;2023-08-06T10:57:35;12.88;;;2.05;;
44276;SDS011;29973;43.742;1.236;2023-08-06T11:00:01;6.82;;;1.88;;
44276;SDS011;29973;43.742;1.236;2023-08-06T11:02:29;5.70;;;1.60;;
44276;SDS011;29973;43.742;1.236;2023-08-06T11:05:04;9.93;;;1.85;;
44276;SDS011;29973;43.742;1.236;2023-08-06T11:07:33;6.75;;;1.80;;
44276;SDS011;29973;43.742;1.236;2023-08-06T11:10:12;7.53;;;1.70;;
44276;SDS011;29973;43.742;1.236;2023-08-06T11:12:39;7.68;;;1.55;;
44276;SDS011;29973;43.742;1.236;2023-08-06T11:15:05;6.22;;;1.80;;
44276;SDS011;29973;43.742;1.236;2023-08-06T11:17:32;8.85;;;2.13;;
44276;SDS011;29973;43.742;1.236;2023-08-06T11:19:59;8.15;;;1.65;;
44276;SDS011;29973;43.742;1.236;2023-08-06T11:22:26;5.20;;;1.58;;
44276;SDS011;29973;43.742;1.236;2023-08-06T11:24:52;4.60;;;1.60;;
44276;SDS011;29973;43.742;1.236;2023-08-06T11:27:19;6.90;;;1.65;;
44276;SDS011;29973;43.742;1.236;2023-08-06T11:29:45;5.50;;;1.67;;
44276;SDS011;29973;43.742;1.236;2023-08-06T11:32:11;5.45;;;1.60;;
44276;SDS011;29973;43.742;1.236;2023-08-06T11:34:37;9.38;;;2.10;;
44276;SDS011;29973;43.742;1.236;2023-08-06T11:37:05;8.38;;;1.90;;
44276;SDS011;29973;43.742;1.236;2023-08-06T11:39:35;5.63;;;1.50;;
44276;SDS011;29973;43.742;1.236;2023-08-06T11:42:07;4.80;;;1.10;;
44276;SDS011;29973;43.742;1.236;2023-08-06T11:44:36;5.38;;;1.90;;
44276;SDS011;29973;43.742;1.236;2023-08-06T11:47:05;6.03;;;1.65;;
44276;SDS011;29973;43.742;1.236;2023-08-06T11:49:40;4.32;;;1.25;;
44276;SDS011;29973;43.742;1.236;2023-08-06T11:55:09;5.10;;;1.58;;
44276;SDS011;29973;43.742;1.236;2023-08-06T11:57:39;7.43;;;1.52;;
44276;SDS011;29973;43.742;1.236;2023-08-06T12:00:10;5.32;;;1.60;;
44276;SDS011;29973;43.742;1.236;2023-08-06T12:02:41;7.07;;;2.28;;
44276;SDS011;29973;43.742;1.236;2023-08-06T12:05:14;5.93;;;1.65;;
44276;SDS011;29973;43.742;1.236;2023-08-06T12:07:45;6.60;;;1.75;;
44276;SDS011;29973;43.742;1.236;2023-08-06T12:10:12;6.95;;;1.98;;
44276;SDS011;29973;43.742;1.236;2023-08-06T12:12:39;4.55;;;2.05;;
44276;SDS011;29973;43.742;1.236;2023-08-06T12:15:08;6.47;;;1.60;;
44276;SDS011;29973;43.742;1.236;2023-08-06T12:17:37;5.85;;;1.98;;
44276;SDS011;29973;43.742;1.236;2023-08-06T12:20:05;8.85;;;2.28;;
44276;SDS011;29973;43.742;1.236;2023-08-06T12:22:32;5.65;;;1.52;;
44276;SDS011;29973;43.742;1.236;2023-08-06T12:25:04;8.25;;;2.00;;
44276;SDS011;29973;43.742;1.236;2023-08-06T12:27:35;8.85;;;1.77;;
44276;SDS011;29973;43.742;1.236;2023-08-06T12:30:01;5.40;;;1.50;;
44276;SDS011;29973;43.742;1.236;2023-08-06T12:32:28;6.57;;;1.67;;
44276;SDS011;29973;43.742;1.236;2023-08-06T12:34:54;7.05;;;1.88;;
44276;SDS011;29973;43.742;1.236;2023-08-06T12:37:20;8.50;;;2.05;;
44276;SDS011;29973;43.742;1.236;2023-08-06T12:39:45;8.05;;;1.98;;
44276;SDS011;29973;43.742;1.236;2023-08-06T12:42:11;7.18;;;2.00;;
44276;SDS011;29973;43.742;1.236;2023-08-06T12:44:37;5.03;;;2.08;;
44276;SDS011;29973;43.742;1.236;2023-08-06T12:47:03;8.52;;;1.77;;
44276;SDS011;29973;43.742;1.236;2023-08-06T12:49:29;6.38;;;1.70;;
44276;SDS011;29973;43.742;1.236;2023-08-06T12:51:56;7.28;;;2.30;;
44276;SDS011;29973;43.742;1.236;2023-08-06T12:54:23;10.20;;;2.33;;
44276;SDS011;29973;43.742;1.236;2023-08-06T12:56:49;6.80;;;1.77;;
44276;SDS011;29973;43.742;1.236;2023-08-06T12:59:15;9.77;;;1.90;;
44276;SDS011;29973;43.742;1.236;2023-08-06T13:01:42;8.88;;;2.10;;
44276;SDS011;29973;43.742;1.236;2023-08-06T13:04:08;5.72;;;2.13;;
44276;SDS011;29973;43.742;1.236;2023-08-06T13:06:34;6.20;;;2.00;;
44276;SDS011;29973;43.742;1.236;2023-08-06T13:09:11;4.63;;;1.88;;
44276;SDS011;29973;43.742;1.236;2023-08-06T13:11:38;6.68;;;1.95;;
44276;SDS011;29973;43.742;1.236;2023-08-06T13:14:05;5.28;;;1.95;;
44276;SDS011;29973;43.742;1.236;2023-08-06T13:16:31;6.18;;;1.85;;
44276;SDS011;29973;43.742;1.236;2023-08-06T13:18:57;6.88;;;1.98;;
44276;SDS011;29973;43.742;1.236;2023-08-06T13:21:23;5.13;;;1.48;;
44276;SDS011;29973;43.742;1.236;2023-08-06T13:23:49;10.40;;;2.20;;
44276;SDS011;29973;43.742;1.236;2023-08-06T13:26:15;4.78;;;1.60;;
44276;SDS011;29973;43.742;1.236;2023-08-06T13:28:41;5.20;;;1.80;;
44276;SDS011;29973;43.742;1.236;2023-08-06T13:31:07;8.18;;;2.00;;
44276;SDS011;29973;43.742;1.236;2023-08-06T13:33:32;6.22;;;1.95;;
44276;SDS011;29973;43.742;1.236;2023-08-06T13:35:58;5.68;;;1.98;;
44276;SDS011;29973;43.742;1.236;2023-08-06T13:38:24;9.98;;;2.03;;
44276;SDS011;29973;43.742;1.236;2023-08-06T13:40:50;6.60;;;2.00;;
44276;SDS011;29973;43.742;1.236;2023-08-06T13:43:15;5.22;;;1.80;;
44276;SDS011;29973;43.742;1.236;2023-08-06T13:45:44;7.78;;;1.95;;
44276;SDS011;29973;43.742;1.236;2023-08-06T13:48:09;9.93;;;2.22;;
44276;SDS011;29973;43.742;1.236;2023-08-06T13:50:36;9.10;;;1.90;;
44276;SDS011;29973;43.742;1.236;2023-08-06T13:53:02;6.15;;;1.98;;
44276;SDS011;29973;43.742;1.236;2023-08-06T13:55:28;6.38;;;2.13;;
44276;SDS011;29973;43.742;1.236;2023-08-06T13:57:54;10.32;;;1.73;;
44276;SDS011;29973;43.742;1.236;2023-08-06T14:00:20;5.78;;;1.83;;
44276;SDS011;29973;43.742;1.236;2023-08-06T14:02:46;9.40;;;2.50;;
44276;SDS011;29973;43.742;1.236;2023-08-06T14:05:11;6.10;;;1.75;;
44276;SDS011;29973;43.742;1.236;2023-08-06T14:07:37;7.95;;;1.73;;
44276;SDS011;29973;43.742;1.236;2023-08-06T14:10:03;5.88;;;1.98;;
44276;SDS011;29973;43.742;1.236;2023-08-06T14:12:30;15.10;;;1.90;;
44276;SDS011;29973;43.742;1.236;2023-08-06T14:14:58;8.15;;;1.80;;
44276;SDS011;29973;43.742;1.236;2023-08-06T14:17:24;8.02;;;1.90;;
44276;SDS011;29973;43.742;1.236;2023-08-06T14:19:50;6.63;;;1.88;;
44276;SDS011;29973;43.742;1.236;2023-08-06T14:22:16;6.53;;;1.77;;
44276;SDS011;29973;43.742;1.236;2023-08-06T14:24:41;6.18;;;2.05;;
44276;SDS011;29973;43.742;1.236;2023-08-06T14:27:07;11.05;;;2.13;;
44276;SDS011;29973;43.742;1.236;2023-08-06T14:29:33;6.75;;;2.15;;
44276;SDS011;29973;43.742;1.236;2023-08-06T14:31:58;5.07;;;1.30;;
44276;SDS011;29973;43.742;1.236;2023-08-06T14:34:24;9.13;;;2.30;;
44276;SDS011;29973;43.742;1.236;2023-08-06T14:36:50;13.15;;;2.40;;
44276;SDS011;29973;43.742;1.236;2023-08-06T14:39:15;4.10;;;1.52;;
44276;SDS011;29973;43.742;1.236;2023-08-06T14:41:41;6.80;;;1.73;;
44276;SDS011;29973;43.742;1.236;2023-08-06T14:44:07;7.15;;;1.85;;
44276;SDS011;29973;43.742;1.236;2023-08-06T14:46:33;6.10;;;1.60;;
44276;SDS011;29973;43.742;1.236;2023-08-06T14:48:58;5.35;;;2.10;;
44276;SDS011;29973;43.742;1.236;2023-08-06T14:51:24;7.70;;;1.90;;
44276;SDS011;29973;43.742;1.236;2023-08-06T14:53:50;4.78;;;2.08;;
44276;SDS011;29973;43.742;1.236;2023-08-06T14:56:15;5.82;;;1.67;;